Time;durP1;ratioP1;P1;durP2;ratioP2;P2;SDS_P1;SDS_P2;PMS_P1;PMS_P2;Temp;Humidity;BMP_temperature;BMP_pressure;BME280_temperature;BME280_humidity;BME280_pressure;Samples;Min_cycle;Max_cycle;Signal;HPM_P1;HPM_P2
2021/01/18 00:01:20;;;;;;;13.63;2.65;;;;;;;5.15;80.56;101567.72;5039193;28;20030;-89
2021/01/18 00:03:46;;;;;;;12.38;3.22;;;;;;;5.25;80.80;101559.63;5031663;28;20024;-88
2021/01/18 00:06:16;;;;;;;14.65;3.00;;;;;;;5.15;80.18;101552.09;5031611;28;20476;-90
2021/01/18 00:08:42;;;;;;;12.35;2.67;;;;;;;5.26;80.76;101561.34;5031639;28;20035;-90
2021/01/18 00:11:08;;;;;;;13.50;3.28;;;;;;;5.20;80.39;101553.72;5033133;28;20022;-89
2021/01/18 00:13:34;;;;;;;11.40;2.38;;;;;;;5.08;80.89;101545.34;5031276;28;20052;-89
2021/01/18 00:15:59;;;;;;;20.48;3.55;;;;;;;5.03;81.65;101531.56;5032603;28;20480;-87
2021/01/18 00:18:25;;;;;;;20.17;4.38;;;;;;;5.14;82.00;101555.56;5031287;28;20049;-89
2021/01/18 00:20:50;;;;;;;19.10;3.88;;;;;;;4.91;81.54;101513.69;5031651;28;20036;-89
2021/01/18 00:23:15;;;;;;;19.33;3.63;;;;;;;5.05;81.47;101532.38;5031823;28;20029;-89
2021/01/18 00:25:40;;;;;;;15.63;4.00;;;;;;;5.11;81.50;101544.38;5030976;28;20305;-89
2021/01/18 00:28:06;;;;;;;30.35;3.70;;;;;;;5.07;81.19;101533.19;5032228;28;20113;-90
2021/01/18 00:30:31;;;;;;;15.25;3.88;;;;;;;5.11;81.65;101544.38;5032548;28;20101;-89
2021/01/18 00:32:58;;;;;;;18.02;4.55;;;;;;;5.11;81.26;101544.38;5055297;22;20071;-89
2021/01/18 00:35:25;;;;;;;18.95;3.63;;;;;;;5.09;81.57;101541.81;5050441;28;20021;-88
2021/01/18 00:37:52;;;;;;;14.57;3.65;;;;;;;5.11;81.27;101547.00;5050396;28;20079;-89
2021/01/18 00:40:22;;;;;;;22.48;4.40;;;;;;;5.06;81.51;101544.53;5051682;28;20021;-89
2021/01/18 00:42:48;;;;;;;15.65;3.22;;;;;;;5.13;81.27;101548.69;5051628;28;20526;-89
2021/01/18 00:45:15;;;;;;;14.63;3.10;;;;;;;5.14;81.35;101545.16;5051402;28;20150;-89
2021/01/18 00:47:46;;;;;;;13.90;3.17;;;;;;;5.04;80.95;101529.84;5051724;28;20086;-89
2021/01/18 00:50:17;;;;;;;15.55;3.35;;;;;;;5.07;80.25;101548.81;5052972;28;20029;-87
2021/01/18 00:52:44;;;;;;;10.43;3.60;;;;;;;5.06;80.50;101536.72;5054361;28;20064;-89
2021/01/18 00:55:11;;;;;;;19.08;3.47;;;;;;;5.03;80.56;101539.38;5055539;28;20025;-89
2021/01/18 00:57:37;;;;;;;21.38;3.50;;;;;;;4.92;80.70;101528.44;5054235;28;20021;-89
2021/01/18 01:00:11;;;;;;;19.02;3.10;;;;;;;4.93;81.29;101525.75;5055746;28;20482;-89
2021/01/18 01:02:40;;;;;;;13.18;3.00;;;;;;;4.99;80.50;101524.75;5055569;28;20025;-88
2021/01/18 01:05:07;;;;;;;10.60;3.08;;;;;;;4.94;80.31;101522.28;5054704;28;20075;-88
2021/01/18 01:07:36;;;;;;;16.80;3.40;;;;;;;4.90;81.12;101518.03;5056224;28;20025;-89
2021/01/18 01:10:03;;;;;;;19.92;3.00;;;;;;;4.61;81.78;101482.38;5056004;28;20025;-90
2021/01/18 01:12:28;;;;;;;15.88;2.92;;;;;;;4.91;81.40;101496.31;5055377;28;20502;-89
2021/01/18 01:14:53;;;;;;;15.20;2.60;;;;;;;4.94;80.90;101501.44;5056514;28;20037;-89
2021/01/18 01:17:18;;;;;;;12.55;3.45;;;;;;;4.82;80.87;101477.50;5053917;28;20039;-89
2021/01/18 01:19:44;;;;;;;10.75;2.42;;;;;;;4.62;80.41;101447.69;5055268;28;20067;-89
2021/01/18 01:22:09;;;;;;;23.88;2.90;;;;;;;4.79;81.02;101478.44;5054897;28;20383;-89
2021/01/18 01:24:34;;;;;;;17.08;4.57;;;;;;;4.68;81.41;101450.13;5055185;28;20478;-88
2021/01/18 01:27:00;;;;;;;19.15;2.83;;;;;;;4.83;80.93;101471.41;5053687;28;20025;-89
2021/01/18 01:29:25;;;;;;;16.02;3.15;;;;;;;4.85;81.34;101474.81;5053762;28;20032;-88
2021/01/18 01:31:50;;;;;;;15.50;2.72;;;;;;;4.68;81.99;101457.91;5055389;28;20017;-90
2021/01/18 01:34:16;;;;;;;14.25;2.45;;;;;;;4.80;81.33;101474.06;5053524;28;20436;-89
2021/01/18 01:36:42;;;;;;;8.05;2.45;;;;;;;4.77;80.99;101451.59;5054659;28;20075;-87
2021/01/18 01:39:07;;;;;;;18.88;2.42;;;;;;;4.70;80.91;101444.84;5053794;28;20029;-88
2021/01/18 01:41:33;;;;;;;11.88;1.98;;;;;;;4.64;80.74;101426.81;5054847;28;20051;-90
2021/01/18 01:43:58;;;;;;;13.45;2.22;;;;;;;4.74;81.01;101439.53;5053342;28;20120;-90
2021/01/18 01:46:24;;;;;;;14.73;2.28;;;;;;;4.73;81.24;101444.78;5054681;28;20052;-90
2021/01/18 01:48:49;;;;;;;14.07;3.42;;;;;;;4.64;80.11;101438.09;5054664;28;20043;-89
2021/01/18 01:51:14;;;;;;;15.63;2.75;;;;;;;4.54;80.48;101432.28;5054565;28;20048;-89
2021/01/18 01:53:40;;;;;;;9.98;2.45;;;;;;;4.60;79.91;101441.66;5054680;28;20479;-89
2021/01/18 01:56:06;;;;;;;6.72;2.35;;;;;;;4.36;80.47;101411.94;5054789;28;20067;-87
2021/01/18 01:58:31;;;;;;;9.45;2.28;;;;;;;4.49;80.87;101436.72;5054620;28;20025;-89
2021/01/18 02:00:58;;;;;;;17.98;3.95;;;;;;;4.48;81.75;101440.25;5053973;28;20016;-89
2021/01/18 02:03:40;;;;;;;12.85;2.05;;;;;;;4.57;81.49;101444.34;5054264;28;20029;-88
2021/01/18 02:06:07;;;;;;;10.98;2.58;;;;;;;4.54;81.31;101434.00;5053070;28;20084;-87
2021/01/18 02:08:33;;;;;;;19.73;2.70;;;;;;;4.49;81.79;101436.72;5054054;28;20033;-88
2021/01/18 02:10:58;;;;;;;15.95;3.10;;;;;;;4.52;81.88;101430.59;5054066;28;20024;-88
2021/01/18 02:13:45;;;;;;;21.70;3.25;;;;;;;4.70;82.09;101450.94;5054082;28;20029;-89
2021/01/18 02:16:32;;;;;;;31.00;4.70;;;;;;;4.70;82.63;101455.25;5054136;28;20029;-88
2021/01/18 02:19:02;;;;;;;23.67;2.67;;;;;;;4.90;81.88;101439.97;5052729;28;20140;-88
2021/01/18 02:22:05;;;;;;;18.60;2.40;;;;;;;5.08;81.62;101449.00;5054045;28;20035;-88
2021/01/18 02:24:39;;;;;;;10.43;2.10;;;;;;;5.22;80.94;101443.41;5054132;28;20028;-88
2021/01/18 02:27:31;;;;;;;16.98;2.80;;;;;;;5.16;80.49;101415.78;5055764;28;20025;-87
2021/01/18 02:30:13;;;;;;;17.20;2.67;;;;;;;5.28;80.37;101426.75;5065891;28;20104;-88
2021/01/18 02:33:16;;;;;;;15.07;4.15;;;;;;;5.23;80.60;101420.81;5066111;22;20060;-86
2021/01/18 02:36:03;;;;;;;10.15;1.88;;;;;;;5.39;80.73;101416.88;5052333;28;20056;-88
2021/01/18 02:38:59;;;;;;;19.95;3.35;;;;;;;5.28;80.61;101411.13;5053534;28;20029;-88
2021/01/18 02:41:59;;;;;;;14.90;2.95;;;;;;;5.28;80.83;101406.78;5052157;28;20111;-88
2021/01/18 02:44:26;;;;;;;9.77;2.55;;;;;;;5.35;80.77;101415.25;5032134;28;20121;-88
2021/01/18 02:46:53;;;;;;;19.02;2.40;;;;;;;5.12;80.47;101398.56;5033477;28;20030;-88
2021/01/18 02:49:20;;;;;;;15.77;2.58;;;;;;;5.23;80.28;101411.25;5033312;28;20443;-88
2021/01/18 02:52:02;;;;;;;9.50;2.50;;;;;;;5.20;80.67;101410.50;5033151;28;20030;-87
2021/01/18 02:54:27;;;;;;;17.75;2.58;;;;;;;5.02;80.90;101389.31;5033142;28;20403;-88
2021/01/18 02:56:53;;;;;;;6.57;1.50;;;;;;;5.22;80.53;101395.69;5033329;28;20743;-87
2021/01/18 02:59:20;;;;;;;11.60;2.25;;;;;;;5.23;79.62;101397.38;5033126;28;20029;-87
2021/01/18 03:02:05;;;;;;;12.50;1.50;;;;;;;5.08;79.43;101396.94;5033124;28;20498;-87
2021/01/18 03:04:39;;;;;;;11.60;2.40;;;;;;;4.99;79.52;101397.19;5033061;28;20356;-87
2021/01/18 03:07:09;;;;;;;8.80;3.13;;;;;;;4.93;80.64;101390.41;5033090;28;20038;-87
2021/01/18 03:10:14;;;;;;;4.97;1.55;;;;;;;4.97;81.23;101386.81;5032980;28;20037;-87
2021/01/18 03:12:48;;;;;;;11.88;2.72;;;;;;;5.01;81.18;101392.81;5032589;28;20045;-87
2021/01/18 03:15:14;;;;;;;11.02;1.70;;;;;;;5.05;81.25;101404.00;5033109;28;20033;-87
2021/01/18 03:17:43;;;;;;;12.75;1.60;;;;;;;5.13;80.77;101396.81;5032871;28;20060;-87
2021/01/18 03:20:09;;;;;;;8.93;1.60;;;;;;;5.26;80.75;101399.91;5032902;28;20156;-87
2021/01/18 03:22:35;;;;;;;8.38;2.33;;;;;;;5.11;80.82;101364.75;5032768;28;20104;-87
2021/01/18 03:25:01;;;;;;;7.63;1.52;;;;;;;5.30;80.95;101381.53;5032803;28;20021;-87
2021/01/18 03:27:27;;;;;;;13.30;1.95;;;;;;;5.31;80.41;101374.56;5032743;28;20025;-87
2021/01/18 03:29:53;;;;;;;11.02;1.92;;;;;;;5.35;80.32;101376.19;5032758;28;20029;-87
2021/01/18 03:32:18;;;;;;;9.27;1.90;;;;;;;5.36;79.35;101383.94;5033013;28;20379;-87
2021/01/18 03:34:44;;;;;;;12.07;1.55;;;;;;;5.41;78.72;101375.13;5032570;28;20022;-87
2021/01/18 03:37:09;;;;;;;7.30;1.85;;;;;;;5.44;79.00;101388.94;5032523;28;20025;-87
2021/01/18 03:39:35;;;;;;;7.60;1.48;;;;;;;5.44;79.40;101385.47;5032919;28;20025;-87
2021/01/18 03:42:00;;;;;;;9.57;1.27;;;;;;;5.54;78.47;101373.88;5030967;28;20033;-87
2021/01/18 03:44:25;;;;;;;11.10;1.90;;;;;;;5.54;78.75;101372.09;5030980;28;20041;-87
2021/01/18 03:46:51;;;;;;;9.82;2.17;;;;;;;5.59;78.82;101374.59;5031083;28;20045;-86
2021/01/18 03:49:16;;;;;;;7.38;1.95;;;;;;;5.63;78.59;101370.09;5032548;28;20026;-87
2021/01/18 03:51:42;;;;;;;17.60;2.47;;;;;;;5.65;78.53;101353.53;5032135;28;20040;-88
2021/01/18 03:54:07;;;;;;;14.68;1.80;;;;;;;5.74;78.76;101370.63;5032126;28;20057;-85
2021/01/18 03:56:40;;;;;;;12.30;1.80;;;;;;;5.67;78.61;101367.38;5030910;28;20071;-88
2021/01/18 03:59:06;;;;;;;13.80;2.80;;;;;;;5.74;79.22;101360.19;5032226;28;20103;-86
2021/01/18 04:01:36;;;;;;;7.78;1.60;;;;;;;5.83;79.05;101367.72;5032248;28;20061;-86
2021/01/18 04:04:02;;;;;;;11.60;2.63;;;;;;;5.83;78.61;101372.94;5032082;28;20029;-87
2021/01/18 04:06:33;;;;;;;11.35;1.60;;;;;;;5.90;77.94;101366.59;5032142;28;20079;-88
2021/01/18 04:08:59;;;;;;;7.80;1.73;;;;;;;5.80;78.01;101351.31;5030597;28;20541;-87
2021/01/18 04:11:25;;;;;;;10.13;2.08;;;;;;;5.71;78.65;101335.09;5032025;28;20033;-87
2021/01/18 04:13:50;;;;;;;6.35;2.13;;;;;;;5.84;78.50;101351.16;5030694;28;20045;-88
2021/01/18 04:16:16;;;;;;;5.22;1.63;;;;;;;5.86;77.86;101349.34;5032232;28;20412;-88
2021/01/18 04:18:41;;;;;;;12.77;2.45;;;;;;;5.94;78.28;101352.59;5031951;28;20383;-87
2021/01/18 04:21:06;;;;;;;10.32;2.03;;;;;;;5.90;78.17;101353.56;5031794;28;20407;-87
2021/01/18 04:23:34;;;;;;;12.18;2.20;;;;;;;5.79;77.79;101344.44;5031604;28;20506;-87
2021/01/18 04:25:59;;;;;;;11.32;1.95;;;;;;;5.69;79.37;101338.66;5031879;28;20549;-88
2021/01/18 04:28:24;;;;;;;12.65;2.40;;;;;;;5.72;78.81;101355.03;5031857;28;20038;-87
2021/01/18 04:30:50;;;;;;;4.68;1.80;;;;;;;5.83;78.74;101353.84;5032044;28;20025;-88
2021/01/18 04:33:15;;;;;;;9.27;1.55;;;;;;;5.69;78.51;101349.09;5032479;28;20026;-88
2021/01/18 04:35:40;;;;;;;6.18;1.70;;;;;;;5.51;78.74;101317.50;5031780;28;20026;-88
2021/01/18 04:38:07;;;;;;;4.78;1.58;;;;;;;5.60;78.71;101346.78;5031631;28;20025;-88
2021/01/18 04:40:33;;;;;;;7.45;1.75;;;;;;;5.50;79.18;101339.25;5031743;28;20021;-88
2021/01/18 04:42:59;;;;;;;4.65;1.63;;;;;;;5.55;78.57;101345.16;5030323;28;20458;-88
2021/01/18 04:45:26;;;;;;;10.55;2.13;;;;;;;5.41;79.15;101329.13;5031729;28;20503;-88
2021/01/18 04:47:54;;;;;;;5.03;1.48;;;;;;;5.44;79.17;101330.78;5031553;28;20069;-87
2021/01/18 04:50:22;;;;;;;6.85;1.48;;;;;;;5.55;79.14;101342.56;5032238;28;20029;-87
2021/01/18 04:52:53;;;;;;;4.88;1.50;;;;;;;5.40;79.51;101330.03;5031512;28;20025;-88
2021/01/18 04:55:29;;;;;;;10.77;2.80;;;;;;;5.43;80.34;101336.88;5032283;28;20033;-88
2021/01/18 04:58:18;;;;;;;6.80;1.92;;;;;;;5.39;81.09;101330.94;5034258;28;20053;-88
2021/01/18 05:00:51;;;;;;;6.35;1.75;;;;;;;5.38;80.87;101318.78;5031793;28;20530;-87
2021/01/18 05:03:19;;;;;;;8.43;1.88;;;;;;;5.42;80.54;101317.78;5031494;28;20029;-87
2021/01/18 05:05:50;;;;;;;12.70;2.15;;;;;;;5.40;80.98;101326.56;5031665;28;20022;-87
2021/01/18 05:08:48;;;;;;;5.47;1.60;;;;;;;5.52;80.30;101321.81;5031348;28;20021;-87
2021/01/18 05:11:15;;;;;;;7.00;1.75;;;;;;;5.61;80.67;101320.66;5031283;28;20051;-86
2021/01/18 05:13:41;;;;;;;7.10;1.40;;;;;;;5.67;79.94;101319.63;5031167;28;20021;-85
2021/01/18 05:16:10;;;;;;;10.45;2.30;;;;;;;5.77;79.78;101323.63;5029918;28;20005;-87
2021/01/18 05:18:37;;;;;;;8.52;1.80;;;;;;;5.78;79.19;101314.88;5031397;28;20083;-87
2021/01/18 05:21:07;;;;;;;4.00;1.48;;;;;;;5.84;79.62;101309.47;5031739;28;20032;-84
2021/01/18 05:23:43;;;;;;;6.57;1.60;;;;;;;5.80;79.44;101314.84;5031157;28;20026;-86
2021/01/18 05:26:26;;;;;;;9.30;2.60;;;;;;;5.83;79.49;101320.81;5031268;28;20454;-87
2021/01/18 05:28:54;;;;;;;6.35;1.45;;;;;;;5.85;79.39;101305.97;5030010;28;20459;-87
2021/01/18 05:31:28;;;;;;;6.20;1.77;;;;;;;5.92;79.80;101330.94;5031375;28;20187;-86
2021/01/18 05:34:05;;;;;;;5.82;1.65;;;;;;;5.85;79.98;101318.16;5030387;28;20045;-87
2021/01/18 05:36:40;;;;;;;3.45;1.50;;;;;;;5.92;79.98;101322.25;5032904;28;20100;-87
2021/01/18 05:39:16;;;;;;;5.05;1.38;;;;;;;5.99;79.80;101328.16;5033541;28;20030;-86
2021/01/18 05:41:43;;;;;;;10.52;1.65;;;;;;;6.34;78.69;101324.31;5033418;28;20066;-87
2021/01/18 05:44:10;;;;;;;8.27;1.63;;;;;;;6.37;78.52;101316.38;5033248;28;20017;-86
2021/01/18 05:46:37;;;;;;;7.13;1.35;;;;;;;6.44;77.42;101309.19;5035186;28;20522;-86
2021/01/18 05:49:08;;;;;;;3.75;1.20;;;;;;;6.51;77.10;101308.88;5034552;28;20441;-86
2021/01/18 05:51:35;;;;;;;3.88;1.27;;;;;;;6.49;77.10;101315.06;5034613;28;20017;-86
2021/01/18 05:54:01;;;;;;;11.90;1.88;;;;;;;6.51;77.38;101308.03;5034305;28;20057;-86
2021/01/18 05:56:37;;;;;;;5.60;1.67;;;;;;;6.43;77.95;101310.09;5034440;28;20025;-86
2021/01/18 05:59:30;;;;;;;9.95;2.28;;;;;;;6.37;77.93;101307.69;5034295;28;20021;-87
2021/01/18 06:01:56;;;;;;;4.63;1.50;;;;;;;6.47;78.05;101302.06;5034015;28;20042;-86
2021/01/18 06:04:27;;;;;;;5.32;1.60;;;;;;;6.41;78.05;101291.88;5033216;28;20029;-86
2021/01/18 06:06:55;;;;;;;6.07;1.27;;;;;;;6.34;78.58;101288.66;5034371;28;20036;-86
2021/01/18 06:09:24;;;;;;;4.72;0.80;;;;;;;6.09;79.71;101286.06;5034172;28;20471;-86
2021/01/18 06:11:49;;;;;;;7.28;1.40;;;;;;;6.18;79.43;101287.50;5034074;28;20026;-86
2021/01/18 06:14:18;;;;;;;5.07;1.10;;;;;;;6.13;79.55;101292.84;5034176;28;20052;-86
2021/01/18 06:16:45;;;;;;;5.88;1.10;;;;;;;5.89;80.26;101278.91;5034092;28;20025;-86
2021/01/18 06:19:14;;;;;;;3.92;0.93;;;;;;;5.93;80.04;101292.69;5034201;28;20094;-86
2021/01/18 06:21:41;;;;;;;6.30;1.30;;;;;;;5.93;80.53;101297.91;5033954;28;20080;-86
2021/01/18 06:24:21;;;;;;;5.93;1.08;;;;;;;5.82;81.58;101307.81;5033746;28;20037;-86
2021/01/18 06:26:47;;;;;;;4.43;0.85;;;;;;;5.87;81.32;101300.72;5032825;28;20025;-86
2021/01/18 06:29:38;;;;;;;4.38;0.88;;;;;;;5.87;81.88;101301.56;5032591;28;20035;-86
2021/01/18 06:32:05;;;;;;;5.38;1.10;;;;;;;6.28;79.60;101275.84;5034390;28;20139;-86
2021/01/18 06:34:30;;;;;;;3.95;0.90;;;;;;;6.46;79.14;101289.97;5033651;28;20029;-86
2021/01/18 06:36:56;;;;;;;2.33;0.80;;;;;;;6.44;78.75;101281.34;5032615;28;20036;-86
2021/01/18 06:39:26;;;;;;;5.43;0.93;;;;;;;6.69;78.16;101296.06;5033489;28;20079;-86
2021/01/18 06:42:02;;;;;;;3.83;0.82;;;;;;;6.53;78.43;101296.63;5033609;28;20147;-86
2021/01/18 06:44:39;;;;;;;2.50;0.60;;;;;;;6.65;77.74;101289.25;5033692;28;20068;-86
2021/01/18 06:47:26;;;;;;;1.42;0.40;;;;;;;6.62;77.92;101302.44;5033627;28;20497;-87
2021/01/18 06:49:57;;;;;;;5.82;1.67;;;;;;;6.44;79.40;101296.16;5033380;28;20025;-86
2021/01/18 06:52:33;;;;;;;2.13;0.75;;;;;;;6.58;78.14;101304.31;5033379;28;20025;-86
2021/01/18 06:55:12;;;;;;;2.40;0.63;;;;;;;6.67;78.27;101283.06;5032072;28;20479;-86
2021/01/18 06:57:46;;;;;;;1.55;0.68;;;;;;;6.78;78.09;101305.34;5032014;28;20112;-86
2021/01/18 07:00:17;;;;;;;2.67;0.88;;;;;;;6.58;78.10;101286.03;5033295;28;20363;-86
2021/01/18 07:02:53;;;;;;;3.20;1.23;;;;;;;6.50;79.33;101295.91;5033066;28;20095;-86
2021/01/18 07:05:32;;;;;;;6.53;1.30;;;;;;;6.62;78.66;101290.25;5033288;28;20021;-86
2021/01/18 07:08:03;;;;;;;6.03;1.92;;;;;;;6.53;79.02;101280.13;5033139;28;20021;-86
2021/01/18 07:10:31;;;;;;;4.22;0.90;;;;;;;6.29;80.14;101293.16;5033355;28;20029;-86
2021/01/18 07:12:58;;;;;;;4.50;1.30;;;;;;;6.34;80.33;101293.88;5031818;28;20107;-86
2021/01/18 07:15:25;;;;;;;7.22;1.65;;;;;;;6.26;80.83;101275.03;5032927;28;20554;-86
2021/01/18 07:17:55;;;;;;;3.05;1.00;;;;;;;6.20;80.87;101293.50;5031729;28;20034;-86
2021/01/18 07:20:25;;;;;;;3.35;1.33;;;;;;;6.39;80.32;101287.63;5031790;28;20025;-86
2021/01/18 07:23:26;;;;;;;7.40;0.90;;;;;;;6.22;80.66;101286.47;5033089;28;20048;-86
2021/01/18 07:26:19;;;;;;;8.07;2.10;;;;;;;6.22;80.65;101281.28;5036055;28;20133;-86
2021/01/18 07:28:53;;;;;;;6.65;0.85;;;;;;;6.24;80.53;101279.47;5022657;28;20045;-86
2021/01/18 07:31:18;;;;;;;3.65;0.75;;;;;;;6.41;80.04;101288.41;5032687;28;20394;-87
2021/01/18 07:33:45;;;;;;;5.57;0.90;;;;;;;6.40;80.29;101294.53;5033138;28;20112;-86
2021/01/18 07:36:11;;;;;;;9.10;1.20;;;;;;;6.32;80.97;101293.06;5032762;28;20030;-86
2021/01/18 07:38:37;;;;;;;3.05;1.33;;;;;;;6.26;80.27;101293.28;5032671;28;20029;-86
2021/01/18 07:41:08;;;;;;;2.65;0.80;;;;;;;6.29;80.71;101303.59;5032548;28;20108;-86
2021/01/18 07:43:41;;;;;;;4.50;1.33;;;;;;;6.54;80.17;101298.34;5032100;28;20539;-86
2021/01/18 07:46:25;;;;;;;2.30;0.80;;;;;;;6.83;79.04;101295.53;5032356;28;20483;-87
2021/01/18 07:48:55;;;;;;;7.65;1.50;;;;;;;6.50;78.66;101296.75;5032350;28;20036;-87
2021/01/18 07:51:22;;;;;;;7.70;1.35;;;;;;;6.47;79.47;101301.25;5021390;28;20049;-86
2021/01/18 07:53:47;;;;;;;6.75;1.92;;;;;;;6.58;79.18;101306.06;5026922;28;20033;-86
2021/01/18 07:56:33;;;;;;;5.28;1.58;;;;;;;6.49;79.41;101302.03;5032516;28;20028;-93
2021/01/18 07:59:03;;;;;;;4.15;1.60;;;;;;;6.58;78.06;101275.59;5030270;28;20042;-92
2021/01/18 08:01:30;;;;;;;4.25;1.65;;;;;;;6.49;78.21;101263.72;5032036;28;20025;-91
2021/01/18 08:04:21;;;;;;;6.88;1.60;;;;;;;7.07;77.05;101306.81;5032305;28;20029;-91
2021/01/18 08:07:06;;;;;;;9.15;2.00;;;;;;;6.85;77.61;101305.03;5031704;28;20025;-90
2021/01/18 08:09:33;;;;;;;4.95;1.80;;;;;;;6.58;77.51;101286.03;5031040;28;20334;-90
2021/01/18 08:12:28;;;;;;;3.33;1.58;;;;;;;6.46;78.62;101297.78;5030897;28;20083;-87
2021/01/18 08:14:54;;;;;;;7.90;2.05;;;;;;;6.40;79.31;101291.91;5029227;28;20040;-88
2021/01/18 08:17:19;;;;;;;5.13;1.60;;;;;;;6.24;78.48;101292.50;5031953;28;20025;-89
2021/01/18 08:20:11;;;;;;;6.65;1.50;;;;;;;6.43;79.16;101312.69;5031212;28;20021;-89
2021/01/18 08:22:36;;;;;;;5.22;1.80;;;;;;;6.44;79.08;101314.41;5030709;28;20052;-88
2021/01/18 08:25:03;;;;;;;4.18;1.60;;;;;;;6.38;79.49;101304.16;5032013;28;20112;-89
2021/01/18 08:27:39;;;;;;;4.45;1.63;;;;;;;6.41;79.64;101311.91;5032011;28;20083;-88
2021/01/18 08:30:29;;;;;;;4.32;2.67;;;;;;;6.43;79.40;101315.31;5031625;28;20028;-88
2021/01/18 08:32:56;;;;;;;5.57;1.60;;;;;;;6.42;79.10;101314.47;5029328;28;20482;-88
2021/01/18 08:35:31;;;;;;;3.38;1.50;;;;;;;6.36;78.83;101319.91;5031707;28;20021;-89
2021/01/18 08:38:01;;;;;;;7.80;2.00;;;;;;;6.49;79.37;101302.03;5031118;28;20505;-88
2021/01/18 08:40:41;;;;;;;4.65;1.20;;;;;;;6.70;77.89;101282.13;5031888;28;20076;-88
2021/01/18 08:43:08;;;;;;;6.10;2.13;;;;;;;6.77;77.90;101285.34;5030492;28;20071;-86
2021/01/18 08:45:42;;;;;;;3.72;2.60;;;;;;;6.84;77.80;101264.16;5031792;28;20045;-86
2021/01/18 08:48:10;;;;;;;7.72;2.38;;;;;;;6.92;77.31;101275.16;5031500;28;20013;-85
2021/01/18 08:50:35;;;;;;;6.43;2.83;;;;;;;6.95;77.75;101276.78;5031073;28;20025;-91
2021/01/18 08:53:22;;;;;;;5.88;2.10;;;;;;;6.97;78.01;101266.28;5028601;28;20030;-91
2021/01/18 08:55:49;;;;;;;5.18;1.90;;;;;;;6.93;77.23;101274.25;5011157;28;20025;-92
2021/01/18 08:58:30;;;;;;;7.05;1.80;;;;;;;6.75;78.55;101267.13;5011039;28;20094;-91
2021/01/18 09:00:58;;;;;;;4.55;1.58;;;;;;;6.58;78.39;101261.72;5028858;28;20025;-94
2021/01/18 09:03:24;;;;;;;3.92;1.20;;;;;;;6.64;78.82;101272.75;5032551;28;20474;-89
2021/01/18 09:05:54;;;;;;;7.50;2.33;;;;;;;6.48;79.80;101282.09;5043401;28;20049;-89
2021/01/18 09:08:21;;;;;;;7.85;2.03;;;;;;;6.58;79.05;101267.78;5048381;28;20017;-90
2021/01/18 09:11:00;;;;;;;2.95;1.58;;;;;;;6.79;78.97;101266.09;5041030;28;20033;-91
2021/01/18 09:13:28;;;;;;;2.85;1.50;;;;;;;6.86;78.05;101261.50;5032459;28;20042;-90
2021/01/18 09:15:55;;;;;;;4.97;2.20;;;;;;;6.92;78.19;101267.31;5033268;28;20029;-90
2021/01/18 09:18:22;;;;;;;5.85;1.48;;;;;;;6.94;77.92;101257.69;5036216;28;20373;-89
2021/01/18 09:20:49;;;;;;;2.45;1.35;;;;;;;7.05;78.50;101272.94;5036858;28;20092;-91
2021/01/18 09:23:17;;;;;;;4.55;1.73;;;;;;;7.12;77.81;101274.38;5038222;28;20018;-91
2021/01/18 09:25:42;;;;;;;4.47;1.88;;;;;;;6.98;77.83;101245.34;5036553;28;20021;-91
2021/01/18 09:28:11;;;;;;;3.05;0.98;;;;;;;7.12;77.90;101270.94;5036922;28;20029;-89
2021/01/18 09:30:38;;;;;;;5.05;1.83;;;;;;;7.17;77.36;101266.38;5033910;28;20029;-89
2021/01/18 09:33:06;;;;;;;4.22;1.88;;;;;;;7.31;76.29;101258.81;5032453;28;20093;-88
2021/01/18 09:35:35;;;;;;;2.72;1.63;;;;;;;7.51;77.30;101262.38;5021094;28;20549;-89
2021/01/18 09:38:01;;;;;;;3.88;2.08;;;;;;;7.78;76.06;101255.16;5024748;28;20025;-89
2021/01/18 09:40:27;;;;;;;3.72;1.88;;;;;;;7.91;74.72;101253.69;5026764;28;20117;-89
2021/01/18 09:42:57;;;;;;;5.15;2.00;;;;;;;8.10;74.40;101258.16;5036241;28;20113;-89
2021/01/18 09:45:24;;;;;;;3.75;1.48;;;;;;;7.99;74.05;101262.97;5035257;28;20022;-90
2021/01/18 09:47:50;;;;;;;4.30;1.83;;;;;;;7.87;75.20;101243.44;5026411;28;20018;-90
2021/01/18 09:50:18;;;;;;;4.75;1.67;;;;;;;8.01;75.36;101251.53;5032026;28;20392;-85
2021/01/18 09:52:49;;;;;;;5.10;1.40;;;;;;;8.02;74.87;101257.63;5036697;28;20116;-87
2021/01/18 09:55:24;;;;;;;2.90;1.30;;;;;;;8.28;73.34;101261.72;5041424;28;20024;-86
2021/01/18 09:57:57;;;;;;;3.05;1.23;;;;;;;8.03;74.84;101246.25;5045297;28;20085;-88
2021/01/18 10:00:26;;;;;;;4.32;1.52;;;;;;;8.20;74.45;101258.59;5028354;28;20484;-87
2021/01/18 10:02:53;;;;;;;5.45;1.30;;;;;;;8.23;74.07;101247.97;5037896;28;20464;-87
2021/01/18 10:05:27;;;;;;;5.70;1.48;;;;;;;8.30;74.28;101265.09;5035526;28;20101;-86
2021/01/18 10:07:54;;;;;;;3.25;1.05;;;;;;;8.33;72.78;101259.72;5028882;28;20033;-89
2021/01/18 10:10:20;;;;;;;2.53;0.90;;;;;;;8.29;74.17;101237.22;5041804;28;20044;-88
2021/01/18 10:12:54;;;;;;;3.45;1.83;;;;;;;8.34;73.84;101256.19;5040044;28;20045;-92
2021/01/18 10:15:27;;;;;;;3.85;0.82;;;;;;;8.56;74.31;101256.09;5037261;28;20025;-86
2021/01/18 10:17:54;;;;;;;8.15;0.80;;;;;;;8.66;72.97;101253.91;5026073;28;20048;-89
2021/01/18 10:20:28;;;;;;;5.90;1.80;;;;;;;8.30;73.60;101258.09;5039455;28;20039;-86
2021/01/18 10:22:54;;;;;;;5.13;1.55;;;;;;;8.38;73.38;101236.81;5058860;28;20649;-94
2021/01/18 10:25:19;;;;;;;4.50;1.10;;;;;;;8.30;73.75;101252.03;5041372;28;20029;-86
2021/01/18 10:27:50;;;;;;;5.82;1.05;;;;;;;8.34;72.72;101261.44;5035194;28;20026;-96
2021/01/18 10:30:21;;;;;;;3.88;0.73;;;;;;;8.66;72.36;101262.59;5033456;28;20079;-89
2021/01/18 10:32:51;;;;;;;3.33;0.90;;;;;;;8.77;72.37;101256.00;5035085;28;20533;-86
2021/01/18 10:35:26;;;;;;;2.88;0.77;;;;;;;8.93;72.05;101259.63;5045782;28;20055;-87
2021/01/18 10:37:53;;;;;;;2.92;1.10;;;;;;;9.21;71.09;101253.06;5033711;28;20022;-87
2021/01/18 10:40:20;;;;;;;3.22;1.02;;;;;;;10.05;68.63;101240.06;5033442;28;20040;-87
2021/01/18 10:42:53;;;;;;;6.28;1.27;;;;;;;10.05;67.79;101240.06;5034879;28;20072;-86
2021/01/18 10:45:22;;;;;;;1.60;0.47;;;;;;;9.68;69.49;101234.13;5022063;28;20026;-88
2021/01/18 10:47:59;;;;;;;6.50;1.38;;;;;;;9.77;68.34;101233.63;5036736;28;20021;-87
2021/01/18 10:50:31;;;;;;;6.53;1.48;;;;;;;9.82;68.38;101234.25;5022956;28;20041;-86
2021/01/18 10:53:00;;;;;;;7.10;0.80;;;;;;;9.86;67.36;101235.78;5034931;28;20515;-86
2021/01/18 10:55:25;;;;;;;5.15;1.00;;;;;;;9.67;68.41;101229.78;5033136;28;20029;-86
2021/01/18 10:57:52;;;;;;;5.78;1.10;;;;;;;9.40;69.01;101225.03;5033018;28;20087;-85
2021/01/18 11:00:28;;;;;;;4.45;0.90;;;;;;;9.15;68.60;101211.44;5042625;28;20115;-86
2021/01/18 11:03:03;;;;;;;6.68;1.00;;;;;;;9.39;69.04;101230.34;5030616;28;20052;-86
2021/01/18 11:05:33;;;;;;;6.75;1.10;;;;;;;9.28;69.19;101223.00;5037596;28;20032;-86
2021/01/18 11:08:00;;;;;;;8.30;1.10;;;;;;;9.49;68.60;101216.69;5052355;28;20035;-86
2021/01/18 11:10:27;;;;;;;8.90;1.48;;;;;;;9.03;70.01;101203.25;5042147;28;20474;-91
2021/01/18 11:13:01;;;;;;;3.85;1.10;;;;;;;9.40;69.60;101206.69;5035341;28;20395;-91
2021/01/18 11:15:32;;;;;;;5.53;1.08;;;;;;;9.57;67.65;101173.50;5036354;28;20427;-85
2021/01/18 11:17:58;;;;;;;8.93;1.10;;;;;;;9.88;66.58;101193.75;5038644;28;20057;-94
2021/01/18 11:20:27;;;;;;;8.77;1.30;;;;;;;9.63;66.92;101183.69;5049561;28;20024;-86
2021/01/18 11:22:53;;;;;;;4.72;0.82;;;;;;;9.21;68.72;101172.66;5036383;28;20044;-92
2021/01/18 11:25:20;;;;;;;8.60;1.73;;;;;;;9.41;68.67;101179.53;5035113;28;20475;-84
2021/01/18 11:27:45;;;;;;;9.10;1.88;;;;;;;9.61;67.57;101167.19;5036137;28;20030;-87
2021/01/18 11:30:11;;;;;;;7.82;1.30;;;;;;;9.64;68.24;101169.66;5032323;28;20038;-85
2021/01/18 11:32:37;;;;;;;6.30;1.42;;;;;;;9.69;67.56;101185.97;5046592;28;20021;-83
2021/01/18 11:35:03;;;;;;;7.63;1.80;;;;;;;9.02;70.03;101177.13;5039179;28;20049;-87
2021/01/18 11:37:28;;;;;;;4.55;1.63;;;;;;;9.19;69.87;101182.38;5034033;28;20034;-83
2021/01/18 11:39:53;;;;;;;7.95;1.65;;;;;;;9.13;70.02;101167.81;5043742;28;20030;-88
2021/01/18 11:42:18;;;;;;;4.63;1.90;;;;;;;9.23;70.41;101173.44;5027740;28;20025;-83
2021/01/18 11:44:44;;;;;;;9.23;1.95;;;;;;;8.92;68.56;101168.88;5031610;28;20044;-83
2021/01/18 11:47:09;;;;;;;8.30;1.90;;;;;;;9.09;69.57;101155.78;5022362;28;20127;-84